Time;durP1;ratioP1;P1;durP2;ratioP2;P2;SDS_P1;SDS_P2;PMS_P1;PMS_P2;Temp;Humidity;BMP_temperature;BMP_pressure;BME280_temperature;BME280_humidity;BME280_pressure;Samples;Min_cycle;Max_cycle;Signal;HPM_P1;HPM_P2
2022/01/20 00:01:36;;;;;;;1.98;1.84;;;;;;;18.62;44.78;101160.17;;;;-56
2022/01/20 00:04:27;;;;;;;2.10;1.90;;;;;;;18.59;44.82;101156.55;;;;-57
2022/01/20 00:07:41;;;;;;;2.15;1.95;;;;;;;18.58;44.83;101156.02;;;;-58
2022/01/20 00:30:44;;;;;;;1.88;1.76;;;;;;;18.44;44.92;101170.08;;;;-57
2022/01/20 00:33:33;;;;;;;2.32;1.80;;;;;;;18.42;44.94;101165.82;;;;-55
2022/01/20 00:39:18;;;;;;;1.73;1.63;;;;;;;18.39;44.93;101170.39;;;;-54
2022/01/20 00:42:18;;;;;;;2.95;1.85;;;;;;;18.38;44.95;101177.66;;;;-55
2022/01/20 00:45:18;;;;;;;1.91;1.81;;;;;;;18.36;44.96;101179.72;;;;-56
2022/01/20 00:48:18;;;;;;;2.85;1.69;;;;;;;18.34;44.97;101185.59;;;;-58
2022/01/20 00:51:18;;;;;;;1.81;1.70;;;;;;;18.32;45.00;101179.47;;;;-57
2022/01/20 00:54:18;;;;;;;1.80;1.68;;;;;;;18.31;44.91;101184.25;;;;-56
2022/01/20 00:57:18;;;;;;;2.09;1.85;;;;;;;18.30;45.02;101185.27;;;;-55
2022/01/20 01:00:18;;;;;;;1.93;1.77;;;;;;;18.29;45.06;101188.25;;;;-55
2022/01/20 01:03:18;;;;;;;1.81;1.71;;;;;;;18.27;44.98;101184.16;;;;-55
2022/01/20 01:06:30;;;;;;;2.15;1.75;;;;;;;18.26;45.01;101193.44;;;;-58
2022/01/20 01:09:18;;;;;;;2.00;1.79;;;;;;;18.24;45.04;101184.67;;;;-55
2022/01/20 01:12:27;;;;;;;1.83;1.71;;;;;;;18.23;45.09;101189.33;;;;-55
2022/01/20 01:15:21;;;;;;;1.87;1.74;;;;;;;18.21;45.10;101192.94;;;;-55
2022/01/20 01:21:28;;;;;;;1.91;1.64;;;;;;;18.19;45.10;101188.83;;;;-56
2022/01/20 01:24:18;;;;;;;1.78;1.68;;;;;;;18.17;45.08;101179.61;;;;-55
2022/01/20 01:27:18;;;;;;;2.20;1.61;;;;;;;18.16;45.15;101185.77;;;;-55
2022/01/20 01:30:52;;;;;;;1.81;1.71;;;;;;;18.15;45.14;101186.95;;;;-56
2022/01/20 01:33:18;;;;;;;1.65;1.55;;;;;;;18.14;45.16;101186.45;;;;-57
2022/01/20 01:36:20;;;;;;;1.80;1.70;;;;;;;18.13;45.15;101186.17;;;;-55
2022/01/20 01:39:18;;;;;;;1.74;1.61;;;;;;;18.11;45.17;101186.77;;;;-56
2022/01/20 01:42:25;;;;;;;1.64;1.54;;;;;;;18.09;45.20;101187.13;;;;-56
2022/01/20 01:45:18;;;;;;;1.71;1.61;;;;;;;18.08;45.24;101186.96;;;;-55
2022/01/20 01:48:18;;;;;;;1.76;1.66;;;;;;;18.06;45.16;101190.00;;;;-56
2022/01/20 01:51:18;;;;;;;1.73;1.63;;;;;;;18.06;45.17;101186.75;;;;-56
2022/01/20 01:54:19;;;;;;;1.72;1.60;;;;;;;18.05;45.22;101182.33;;;;-56
2022/01/20 01:57:18;;;;;;;1.70;1.60;;;;;;;18.04;45.19;101184.75;;;;-56
2022/01/20 02:00:18;;;;;;;1.60;1.50;;;;;;;18.02;45.26;101181.55;;;;-56
2022/01/20 02:03:18;;;;;;;1.65;1.55;;;;;;;18.00;45.25;101179.23;;;;-55
2022/01/20 02:06:36;;;;;;;1.70;1.60;;;;;;;18.00;45.20;101190.81;;;;-56
2022/01/20 02:09:34;;;;;;;1.70;1.60;;;;;;;17.98;45.25;101192.72;;;;-55
2022/01/20 02:18:36;;;;;;;1.69;1.59;;;;;;;17.95;45.28;101196.20;;;;-57
2022/01/20 02:21:18;;;;;;;1.72;1.62;;;;;;;17.94;45.26;101205.27;;;;-56
2022/01/20 02:24:18;;;;;;;1.75;1.65;;;;;;;17.92;45.31;101206.44;;;;-56
2022/01/20 02:27:18;;;;;;;1.58;1.48;;;;;;;17.92;45.30;101199.45;;;;-55
2022/01/20 02:30:18;;;;;;;1.70;1.60;;;;;;;17.91;45.30;101196.29;;;;-55
2022/01/20 02:33:18;;;;;;;1.72;1.60;;;;;;;17.89;45.28;101196.08;;;;-55
2022/01/20 02:36:19;;;;;;;1.60;1.50;;;;;;;17.88;45.29;101194.98;;;;-57
2022/01/20 02:40:33;;;;;;;1.60;1.50;;;;;;;17.88;45.28;101201.88;;;;-56
2022/01/20 02:47:18;;;;;;;1.57;1.47;;;;;;;17.85;45.29;101195.65;;;;-56
2022/01/20 02:50:18;;;;;;;1.61;1.51;;;;;;;17.83;45.35;101188.72;;;;-55
2022/01/20 02:53:18;;;;;;;1.60;1.50;;;;;;;17.82;45.34;101190.42;;;;-55
2022/01/20 02:56:18;;;;;;;1.53;1.43;;;;;;;17.82;45.33;101190.83;;;;-58
2022/01/20 02:59:18;;;;;;;1.65;1.53;;;;;;;17.80;45.39;101187.45;;;;-58
2022/01/20 03:02:18;;;;;;;1.59;1.49;;;;;;;17.79;45.39;101187.13;;;;-58
2022/01/20 03:05:18;;;;;;;1.68;1.58;;;;;;;17.78;45.40;101192.59;;;;-58
2022/01/20 03:08:18;;;;;;;1.60;1.50;;;;;;;17.77;45.34;101183.91;;;;-58
2022/01/20 03:11:18;;;;;;;1.60;1.50;;;;;;;17.75;45.38;101181.34;;;;-57
2022/01/20 03:14:18;;;;;;;1.79;1.65;;;;;;;17.75;45.35;101186.13;;;;-57
2022/01/20 03:17:18;;;;;;;1.60;1.50;;;;;;;17.74;45.38;101187.41;;;;-56
2022/01/20 03:20:18;;;;;;;1.54;1.44;;;;;;;17.73;45.38;101183.88;;;;-55
2022/01/20 03:23:18;;;;;;;1.64;1.54;;;;;;;17.73;45.36;101181.94;;;;-56
2022/01/20 03:26:18;;;;;;;1.54;1.44;;;;;;;17.72;45.35;101183.35;;;;-56
2022/01/20 03:29:18;;;;;;;1.54;1.44;;;;;;;17.71;45.40;101182.61;;;;-56
2022/01/20 03:32:18;;;;;;;1.59;1.49;;;;;;;17.70;45.40;101176.00;;;;-56
2022/01/20 03:35:18;;;;;;;1.68;1.58;;;;;;;17.70;45.38;101184.95;;;;-56
2022/01/20 03:38:18;;;;;;;1.53;1.43;;;;;;;17.67;45.43;101186.00;;;;-55
2022/01/20 03:41:18;;;;;;;1.51;1.41;;;;;;;17.67;45.43;101184.95;;;;-56
2022/01/20 03:44:18;;;;;;;1.50;1.40;;;;;;;17.66;45.39;101189.23;;;;-55
2022/01/20 03:47:18;;;;;;;1.51;1.41;;;;;;;17.65;45.45;101183.52;;;;-55
2022/01/20 03:51:02;;;;;;;1.50;1.40;;;;;;;17.64;45.42;101181.56;;;;-58
2022/01/20 03:53:18;;;;;;;1.89;1.51;;;;;;;17.63;45.44;101188.98;;;;-58
2022/01/20 03:56:18;;;;;;;2.35;1.50;;;;;;;17.62;45.42;101175.11;;;;-58
2022/01/20 03:59:18;;;;;;;1.47;1.37;;;;;;;17.61;45.40;101175.63;;;;-58
2022/01/20 04:02:18;;;;;;;1.40;1.30;;;;;;;17.60;45.44;101182.44;;;;-57
2022/01/20 04:05:18;;;;;;;1.46;1.36;;;;;;;17.60;45.42;101182.47;;;;-56
2022/01/20 04:08:18;;;;;;;1.49;1.39;;;;;;;17.58;45.46;101188.30;;;;-57
2022/01/20 04:11:18;;;;;;;1.58;1.48;;;;;;;17.57;45.44;101200.17;;;;-56
2022/01/20 04:14:20;;;;;;;1.50;1.40;;;;;;;17.56;45.45;101200.56;;;;-56
2022/01/20 04:17:20;;;;;;;1.97;1.36;;;;;;;17.55;45.43;101202.14;;;;-55
2022/01/20 04:20:18;;;;;;;1.43;1.33;;;;;;;17.54;45.52;101201.32;;;;-55
2022/01/20 04:23:18;;;;;;;1.50;1.40;;;;;;;17.54;45.43;101201.88;;;;-55
2022/01/20 04:26:18;;;;;;;1.45;1.35;;;;;;;17.53;45.45;101202.73;;;;-55
2022/01/20 04:29:18;;;;;;;1.48;1.38;;;;;;;17.53;45.47;101214.97;;;;-56
2022/01/20 04:32:18;;;;;;;1.49;1.39;;;;;;;17.51;45.46;101212.25;;;;-55
2022/01/20 04:35:20;;;;;;;1.73;1.37;;;;;;;17.51;45.52;101216.30;;;;-56
2022/01/20 04:38:18;;;;;;;1.51;1.40;;;;;;;17.50;45.46;101212.80;;;;-56
2022/01/20 04:41:18;;;;;;;1.51;1.41;;;;;;;17.49;45.49;101213.08;;;;-56
2022/01/20 04:44:30;;;;;;;1.53;1.43;;;;;;;17.49;45.45;101210.72;;;;-56
2022/01/20 04:47:31;;;;;;;1.47;1.37;;;;;;;17.48;45.49;101213.80;;;;-55
2022/01/20 04:59:18;;;;;;;1.34;1.24;;;;;;;17.44;45.50;101202.27;;;;-58
2022/01/20 05:02:18;;;;;;;1.40;1.30;;;;;;;17.43;45.46;101199.09;;;;-58
2022/01/20 05:05:18;;;;;;;1.49;1.39;;;;;;;17.42;45.49;101198.00;;;;-58
2022/01/20 05:08:22;;;;;;;1.57;1.47;;;;;;;17.41;45.51;101197.09;;;;-58
2022/01/20 05:11:18;;;;;;;1.40;1.30;;;;;;;17.40;45.53;101194.22;;;;-58
2022/01/20 05:14:18;;;;;;;1.50;1.40;;;;;;;17.40;45.53;101191.62;;;;-55
2022/01/20 05:17:18;;;;;;;1.42;1.32;;;;;;;17.39;45.51;101196.72;;;;-56
2022/01/20 05:20:18;;;;;;;1.45;1.35;;;;;;;17.39;45.51;101202.44;;;;-55
2022/01/20 05:23:18;;;;;;;1.40;1.30;;;;;;;17.38;45.54;101197.16;;;;-55
2022/01/20 05:26:18;;;;;;;1.43;1.33;;;;;;;17.38;45.49;101197.32;;;;-56
2022/01/20 05:29:18;;;;;;;1.50;1.40;;;;;;;17.37;45.49;101200.75;;;;-56
2022/01/20 05:32:18;;;;;;;1.47;1.37;;;;;;;17.36;45.50;101202.61;;;;-57
2022/01/20 05:35:18;;;;;;;1.52;1.42;;;;;;;17.35;45.50;101199.69;;;;-57
2022/01/20 05:38:18;;;;;;;1.40;1.30;;;;;;;17.35;45.54;101195.95;;;;-57
2022/01/20 05:41:18;;;;;;;1.45;1.35;;;;;;;17.34;45.53;101194.86;;;;-57
2022/01/20 05:44:18;;;;;;;1.44;1.34;;;;;;;17.33;45.51;101197.20;;;;-58
2022/01/20 05:47:25;;;;;;;1.40;1.30;;;;;;;17.34;45.53;101204.02;;;;-58
2022/01/20 05:50:18;;;;;;;1.45;1.35;;;;;;;17.33;45.51;101213.56;;;;-57
2022/01/20 05:53:18;;;;;;;1.30;1.20;;;;;;;17.34;45.58;101203.05;;;;-57
2022/01/20 05:56:18;;;;;;;1.50;1.40;;;;;;;17.35;45.57;101191.47;;;;-57
2022/01/20 05:59:18;;;;;;;1.45;1.35;;;;;;;17.36;45.57;101181.06;;;;-57
2022/01/20 06:02:34;;;;;;;1.41;1.31;;;;;;;17.36;45.58;101190.78;;;;-57
2022/01/20 06:05:18;;;;;;;1.51;1.41;;;;;;;17.37;45.55;101201.03;;;;-57
2022/01/20 06:08:18;;;;;;;1.43;1.32;;;;;;;17.38;45.52;101201.22;;;;-56
2022/01/20 06:11:18;;;;;;;1.29;1.21;;;;;;;17.40;45.53;101215.19;;;;-57
2022/01/20 06:14:18;;;;;;;1.39;1.29;;;;;;;17.41;45.54;101221.81;;;;-56
2022/01/20 06:17:26;;;;;;;1.40;1.30;;;;;;;17.42;45.57;101208.53;;;;-56
2022/01/20 06:20:18;;;;;;;1.49;1.39;;;;;;;17.43;45.53;101201.52;;;;-57
2022/01/20 06:23:18;;;;;;;1.40;1.30;;;;;;;17.43;45.57;101191.20;;;;-57
2022/01/20 06:26:18;;;;;;;1.87;1.53;;;;;;;17.43;45.48;101195.58;;;;-57
2022/01/20 06:29:18;;;;;;;3.17;2.60;;;;;;;17.27;44.11;101203.75;;;;-57
2022/01/20 06:32:18;;;;;;;3.74;2.75;;;;;;;17.19;43.80;101199.87;;;;-57
2022/01/20 06:35:18;;;;;;;4.78;3.15;;;;;;;17.09;43.43;101198.95;;;;-57
2022/01/20 06:38:18;;;;;;;3.29;2.99;;;;;;;17.05;43.32;101198.69;;;;-57
2022/01/20 06:41:18;;;;;;;3.45;3.15;;;;;;;16.98;43.08;101205.70;;;;-57
2022/01/20 06:44:18;;;;;;;5.87;3.21;;;;;;;16.99;43.49;101206.53;;;;-58
2022/01/20 06:47:19;;;;;;;3.32;2.68;;;;;;;17.06;43.99;101208.12;;;;-58
2022/01/20 06:50:18;;;;;;;3.63;2.45;;;;;;;17.10;44.09;101205.77;;;;-58
2022/01/20 06:53:18;;;;;;;2.60;2.37;;;;;;;17.12;44.15;101205.22;;;;-56
2022/01/20 06:56:18;;;;;;;2.52;2.32;;;;;;;17.14;44.21;101216.00;;;;-57
2022/01/20 06:59:18;;;;;;;2.42;2.19;;;;;;;17.15;44.31;101220.19;;;;-56
2022/01/20 07:02:18;;;;;;;2.61;2.20;;;;;;;17.17;44.40;101216.77;;;;-55
2022/01/20 07:05:18;;;;;;;2.29;2.09;;;;;;;17.17;44.44;101223.65;;;;-55
2022/01/20 07:08:18;;;;;;;2.39;2.19;;;;;;;17.19;44.52;101239.41;;;;-56
2022/01/20 07:11:18;;;;;;;2.19;1.89;;;;;;;17.19;44.55;101239.17;;;;-58
2022/01/20 07:14:18;;;;;;;1.98;1.76;;;;;;;17.20;44.61;101246.63;;;;-58
2022/01/20 07:17:18;;;;;;;1.89;1.79;;;;;;;17.20;44.63;101248.98;;;;-55
2022/01/20 07:20:18;;;;;;;2.01;1.79;;;;;;;17.20;44.70;101249.95;;;;-56
2022/01/20 07:23:18;;;;;;;2.03;1.83;;;;;;;17.21;44.72;101258.98;;;;-56
2022/01/20 07:26:18;;;;;;;1.83;1.73;;;;;;;17.20;44.77;101259.27;;;;-56
2022/01/20 07:29:18;;;;;;;1.80;1.70;;;;;;;17.21;44.74;101264.41;;;;-58
2022/01/20 07:32:18;;;;;;;2.09;1.90;;;;;;;17.20;44.78;101270.36;;;;-56
2022/01/20 07:35:18;;;;;;;1.93;1.75;;;;;;;17.20;44.81;101269.07;;;;-56
2022/01/20 07:38:18;;;;;;;1.79;1.69;;;;;;;17.20;44.86;101273.08;;;;-56
2022/01/20 07:41:18;;;;;;;1.71;1.61;;;;;;;17.19;44.89;101270.92;;;;-56
2022/01/20 07:44:19;;;;;;;1.80;1.70;;;;;;;17.20;44.87;101280.81;;;;-58
2022/01/20 07:47:18;;;;;;;1.87;1.71;;;;;;;17.19;44.94;101301.22;;;;-56
2022/01/20 07:50:18;;;;;;;1.77;1.62;;;;;;;17.19;44.89;101307.29;;;;-57
2022/01/20 07:53:18;;;;;;;1.93;1.78;;;;;;;17.19;44.91;101306.73;;;;-56
2022/01/20 07:56:18;;;;;;;1.81;1.67;;;;;;;17.19;44.98;101298.13;;;;-56
2022/01/20 07:59:18;;;;;;;1.93;1.77;;;;;;;17.18;44.95;101296.88;;;;-56
2022/01/20 08:02:18;;;;;;;1.75;1.65;;;;;;;17.19;44.98;101300.64;;;;-57
2022/01/20 08:05:18;;;;;;;1.71;1.61;;;;;;;17.19;45.01;101304.20;;;;-56
2022/01/20 08:08:18;;;;;;;2.38;1.63;;;;;;;17.18;44.97;101296.99;;;;-56
2022/01/20 08:11:18;;;;;;;1.60;1.50;;;;;;;17.18;45.01;101297.60;;;;-55
2022/01/20 08:14:18;;;;;;;1.72;1.43;;;;;;;17.19;45.03;101299.67;;;;-55
2022/01/20 08:17:18;;;;;;;1.71;1.61;;;;;;;17.19;45.01;101301.94;;;;-56
2022/01/20 08:20:18;;;;;;;1.79;1.69;;;;;;;17.19;45.02;101299.75;;;;-56
2022/01/20 08:23:18;;;;;;;1.84;1.70;;;;;;;17.19;45.06;101313.77;;;;-55
2022/01/20 08:26:18;;;;;;;1.79;1.69;;;;;;;17.19;45.02;101321.14;;;;-55
2022/01/20 08:29:18;;;;;;;1.63;1.53;;;;;;;17.19;45.05;101318.88;;;;-55
2022/01/20 08:32:18;;;;;;;1.69;1.56;;;;;;;17.19;45.04;101321.70;;;;-56
2022/01/20 08:35:18;;;;;;;1.99;1.57;;;;;;;17.19;45.07;101317.90;;;;-56
2022/01/20 08:38:18;;;;;;;2.31;1.63;;;;;;;17.19;45.07;101321.55;;;;-55
2022/01/20 08:41:18;;;;;;;1.75;1.65;;;;;;;17.20;45.07;101330.30;;;;-55
2022/01/20 08:44:18;;;;;;;1.91;1.57;;;;;;;17.20;45.09;101338.08;;;;-58
2022/01/20 08:47:20;;;;;;;1.65;1.55;;;;;;;17.19;45.07;101337.34;;;;-58
2022/01/20 08:50:18;;;;;;;1.91;1.60;;;;;;;17.20;45.09;101336.14;;;;-58
2022/01/20 08:53:18;;;;;;;1.55;1.45;;;;;;;17.20;45.05;101337.07;;;;-58
2022/01/20 08:56:18;;;;;;;8.33;1.70;;;;;;;17.22;45.33;101341.23;;;;-55
2022/01/20 08:59:19;;;;;;;1.96;1.62;;;;;;;17.24;45.31;101343.39;;;;-59
2022/01/20 09:02:18;;;;;;;2.19;1.57;;;;;;;17.27;45.36;101348.36;;;;-58
2022/01/20 09:05:18;;;;;;;3.07;1.59;;;;;;;17.31;45.49;101351.39;;;;-52
2022/01/20 09:08:18;;;;;;;2.17;1.50;;;;;;;17.35;45.54;101358.48;;;;-52
2022/01/20 09:11:22;;;;;;;3.36;1.73;;;;;;;17.40;45.98;101347.75;;;;-57
2022/01/20 09:17:18;;;;;;;3.42;1.61;;;;;;;17.45;45.98;101337.47;;;;-56
2022/01/20 09:20:18;;;;;;;4.52;1.67;;;;;;;17.49;45.80;101333.09;;;;-58
2022/01/20 09:23:18;;;;;;;6.55;1.72;;;;;;;17.52;45.71;101324.94;;;;-56
2022/01/20 09:26:18;;;;;;;2.41;1.47;;;;;;;17.56;45.55;101322.77;;;;-58
2022/01/20 09:29:18;;;;;;;2.41;1.50;;;;;;;17.59;45.54;101320.34;;;;-56
2022/01/20 09:32:20;;;;;;;1.43;1.33;;;;;;;17.62;45.46;101321.89;;;;-57
2022/01/20 09:35:18;;;;;;;3.71;1.58;;;;;;;17.67;45.75;101321.13;;;;-56
2022/01/20 09:38:18;;;;;;;4.24;1.55;;;;;;;17.71;46.24;101315.81;;;;-55
2022/01/20 09:41:18;;;;;;;2.69;1.51;;;;;;;17.74;46.23;101305.34;;;;-54
2022/01/20 09:44:18;;;;;;;2.44;1.59;;;;;;;17.78;46.13;101313.34;;;;-51
2022/01/20 09:47:18;;;;;;;4.45;1.65;;;;;;;17.82;46.13;101319.98;;;;-52
2022/01/20 09:50:19;;;;;;;3.11;1.71;;;;;;;17.86;45.92;101328.56;;;;-51
2022/01/20 09:53:18;;;;;;;3.34;1.75;;;;;;;17.91;45.54;101337.23;;;;-50
2022/01/20 09:56:18;;;;;;;3.08;1.82;;;;;;;17.92;45.14;101343.32;;;;-49
2022/01/20 09:59:18;;;;;;;3.01;1.78;;;;;;;17.95;45.21;101351.98;;;;-49
2022/01/20 10:02:19;;;;;;;2.39;1.73;;;;;;;18.02;45.87;101354.38;;;;-51
2022/01/20 10:05:18;;;;;;;3.17;1.81;;;;;;;18.09;45.92;101356.58;;;;-52
2022/01/20 10:08:18;;;;;;;3.25;1.73;;;;;;;18.15;46.09;101361.20;;;;-56
2022/01/20 10:11:18;;;;;;;2.49;1.71;;;;;;;18.20;45.99;101370.81;;;;-59
2022/01/20 10:14:18;;;;;;;2.71;1.83;;;;;;;18.25;45.92;101371.28;;;;-56
2022/01/20 10:17:18;;;;;;;1.78;1.60;;;;;;;18.31;46.01;101371.44;;;;-58
2022/01/20 10:20:18;;;;;;;2.13;1.58;;;;;;;18.36;46.09;101367.83;;;;-53
2022/01/20 10:23:18;;;;;;;3.97;1.50;;;;;;;18.40;46.04;101369.88;;;;-57
2022/01/20 10:26:18;;;;;;;2.07;1.60;;;;;;;18.45;46.12;101375.14;;;;-54
2022/01/20 10:29:18;;;;;;;1.77;1.41;;;;;;;18.49;45.91;101391.39;;;;-53
2022/01/20 10:32:18;;;;;;;3.42;1.70;;;;;;;18.56;46.08;101420.78;;;;-52
2022/01/20 10:35:18;;;;;;;3.92;1.60;;;;;;;18.57;45.96;101419.48;;;;-60
2022/01/20 10:38:19;;;;;;;2.63;1.64;;;;;;;18.63;46.17;101418.75;;;;-62
2022/01/20 10:41:18;;;;;;;2.77;1.66;;;;;;;18.64;45.89;101416.11;;;;-62
2022/01/20 10:44:18;;;;;;;1.64;1.41;;;;;;;18.67;46.27;101412.12;;;;-55
2022/01/20 10:47:18;;;;;;;2.17;1.54;;;;;;;18.70;46.11;101403.52;;;;-58
2022/01/20 10:50:18;;;;;;;4.55;1.55;;;;;;;18.72;45.63;101404.27;;;;-58
2022/01/20 10:53:18;;;;;;;4.11;1.69;;;;;;;18.72;45.84;101407.71;;;;-52
2022/01/20 10:56:18;;;;;;;4.74;1.51;;;;;;;18.77;45.89;101405.70;;;;-51
2022/01/20 10:59:18;;;;;;;4.41;1.50;;;;;;;18.80;45.88;101390.85;;;;-61
2022/01/20 11:02:18;;;;;;;3.05;1.50;;;;;;;18.84;45.77;101379.02;;;;-53
2022/01/20 11:05:18;;;;;;;1.97;1.47;;;;;;;18.87;45.81;101379.27;;;;-51
2022/01/20 11:08:18;;;;;;;4.59;1.41;;;;;;;18.88;45.37;101382.31;;;;-54
2022/01/20 11:11:19;;;;;;;5.53;1.57;;;;;;;18.90;45.59;101384.03;;;;-53
2022/01/20 11:14:18;;;;;;;3.75;1.50;;;;;;;18.92;45.56;101385.14;;;;-59
2022/01/20 11:17:18;;;;;;;4.10;1.51;;;;;;;18.94;45.66;101381.28;;;;-54
2022/01/20 11:20:18;;;;;;;3.60;1.56;;;;;;;18.95;45.61;101378.97;;;;-52
2022/01/20 11:23:18;;;;;;;2.99;1.65;;;;;;;18.98;45.53;101371.47;;;;-60
2022/01/20 11:26:18;;;;;;;2.55;1.57;;;;;;;19.02;45.59;101371.80;;;;-48
2022/01/20 11:29:19;;;;;;;3.41;1.60;;;;;;;19.04;45.38;101369.58;;;;-49
2022/01/20 11:32:18;;;;;;;5.55;1.66;;;;;;;19.03;45.27;101372.17;;;;-52
2022/01/20 11:35:20;;;;;;;2.44;1.40;;;;;;;19.04;45.19;101368.77;;;;-51
2022/01/20 11:38:18;;;;;;;2.08;1.37;;;;;;;19.04;45.14;101375.59;;;;-55
2022/01/20 11:41:20;;;;;;;2.33;1.40;;;;;;;19.05;45.08;101370.75;;;;-55
2022/01/20 11:44:18;;;;;;;3.09;1.41;;;;;;;19.05;45.13;101370.02;;;;-55
2022/01/20 11:47:18;;;;;;;2.31;1.44;;;;;;;19.05;45.07;101369.22;;;;-56
2022/01/20 11:50:18;;;;;;;3.02;1.50;;;;;;;19.11;45.21;101370.73;;;;-59
2022/01/20 11:53:18;;;;;;;5.91;1.52;;;;;;;19.13;45.33;101359.69;;;;-53
2022/01/20 11:56:18;;;;;;;3.70;1.45;;;;;;;19.15;45.47;101356.89;;;;-51
2022/01/20 11:59:18;;;;;;;2.59;1.55;;;;;;;19.18;45.46;101359.25;;;;-60
2022/01/20 12:02:18;;;;;;;4.09;1.55;;;;;;;19.21;45.17;101359.71;;;;-58
2022/01/20 12:09:18;;;;;;;2.01;1.51;;;;;;;19.20;45.00;101353.13;;;;-52
2022/01/20 12:12:18;;;;;;;1.65;1.39;;;;;;;19.20;45.00;101356.21;;;;-57
2022/01/20 12:15:20;;;;;;;2.21;1.53;;;;;;;19.21;44.98;101360.52;;;;-57
2022/01/20 12:18:18;;;;;;;1.84;1.33;;;;;;;19.21;44.94;101357.36;;;;-50
2022/01/20 12:21:18;;;;;;;2.49;1.57;;;;;;;19.22;44.97;101362.76;;;;-50
2022/01/20 12:24:18;;;;;;;2.49;1.28;;;;;;;19.23;44.89;101361.63;;;;-50
2022/01/20 12:27:18;;;;;;;1.61;1.43;;;;;;;19.24;44.86;101364.75;;;;-52
2022/01/20 12:42:18;;;;;;;2.19;1.29;;;;;;;19.31;44.80;101371.63;;;;-50
2022/01/20 12:48:18;;;;;;;1.95;1.43;;;;;;;19.34;44.55;101373.34;;;;-56
2022/01/20 13:03:18;;;;;;;2.69;1.41;;;;;;;19.41;44.61;101390.72;;;;-57
2022/01/20 13:06:25;;;;;;;1.86;1.30;;;;;;;19.42;44.62;101394.70;;;;-56
2022/01/20 13:09:19;;;;;;;2.47;1.53;;;;;;;19.43;44.57;101402.63;;;;-52
2022/01/20 13:16:18;;;;;;;1.79;1.37;;;;;;;19.46;44.56;101401.21;;;;-50
2022/01/20 13:19:18;;;;;;;2.23;1.33;;;;;;;19.47;44.58;101401.01;;;;-53
2022/01/20 13:22:18;;;;;;;2.84;1.49;;;;;;;19.51;44.44;101400.37;;;;-60
2022/01/20 13:25:18;;;;;;;2.97;1.55;;;;;;;19.55;44.52;101406.22;;;;-55
2022/01/20 13:28:18;;;;;;;2.98;1.53;;;;;;;19.58;44.63;101403.34;;;;-57
2022/01/20 13:31:18;;;;;;;2.39;1.50;;;;;;;19.61;44.58;101405.86;;;;-54
2022/01/20 13:34:19;;;;;;;3.06;1.40;;;;;;;19.67;44.67;101412.25;;;;-56
2022/01/20 13:37:18;;;;;;;2.81;1.45;;;;;;;19.68;44.70;101409.33;;;;-55
2022/01/20 13:40:18;;;;;;;1.93;1.46;;;;;;;19.72;44.81;101403.83;;;;-51
2022/01/20 13:46:18;;;;;;;7.41;1.97;;;;;;;19.71;43.97;101402.73;;;;-59
2022/01/20 13:49:18;;;;;;;4.03;1.59;;;;;;;19.69;44.12;101389.73;;;;-60
2022/01/20 13:52:19;;;;;;;5.03;1.57;;;;;;;19.74;44.50;101389.32;;;;-49
2022/01/20 13:55:18;;;;;;;2.95;1.57;;;;;;;19.76;44.57;101398.47;;;;-52
2022/01/20 13:58:18;;;;;;;2.31;1.59;;;;;;;19.78;44.57;101395.50;;;;-58
2022/01/20 14:01:20;;;;;;;3.21;1.61;;;;;;;19.80;44.63;101397.66;;;;-59
2022/01/20 14:04:18;;;;;;;1.91;1.41;;;;;;;19.81;44.64;101401.41;;;;-53
2022/01/20 14:07:20;;;;;;;5.51;1.83;;;;;;;19.83;44.48;101401.84;;;;-48
2022/01/20 14:10:29;;;;;;;5.33;1.60;;;;;;;19.82;44.53;101408.44;;;;-49
2022/01/20 14:13:18;;;;;;;5.73;1.72;;;;;;;19.82;44.40;101418.84;;;;-49
2022/01/20 14:16:18;;;;;;;4.59;1.55;;;;;;;19.80;44.40;101429.70;;;;-49
2022/01/20 14:19:22;;;;;;;2.71;1.35;;;;;;;19.79;44.38;101433.49;;;;-56
2022/01/20 14:22:18;;;;;;;3.49;1.64;;;;;;;19.78;44.40;101431.29;;;;-52
2022/01/20 14:25:18;;;;;;;2.88;1.57;;;;;;;19.78;44.36;101443.58;;;;-52
2022/01/20 14:28:18;;;;;;;2.71;1.44;;;;;;;19.78;44.35;101442.11;;;;-51
2022/01/20 14:31:18;;;;;;;1.81;1.39;;;;;;;19.78;44.38;101443.48;;;;-52
2022/01/20 14:34:18;;;;;;;6.37;1.62;;;;;;;19.81;44.28;101446.63;;;;-53
2022/01/20 14:37:18;;;;;;;3.81;1.73;;;;;;;19.80;43.96;101452.16;;;;-53
2022/01/20 14:40:18;;;;;;;4.77;1.41;;;;;;;19.80;44.11;101463.79;;;;-58
2022/01/20 14:43:20;;;;;;;4.26;1.54;;;;;;;19.79;44.17;101460.98;;;;-59
2022/01/20 14:46:18;;;;;;;3.09;1.52;;;;;;;19.81;44.09;101453.70;;;;-52
2022/01/20 14:49:18;;;;;;;2.08;1.30;;;;;;;19.79;44.22;101453.58;;;;-51
2022/01/20 14:52:18;;;;;;;1.73;1.48;;;;;;;19.79;44.17;101462.78;;;;-53
2022/01/20 14:55:18;;;;;;;1.65;1.39;;;;;;;19.79;44.19;101467.48;;;;-53
2022/01/20 14:58:18;;;;;;;3.77;1.41;;;;;;;19.79;44.22;101466.92;;;;-58
2022/01/20 15:01:18;;;;;;;3.55;1.43;;;;;;;19.78;44.17;101460.66;;;;-51
2022/01/20 15:04:18;;;;;;;2.92;1.38;;;;;;;19.79;44.22;101466.92;;;;-58
2022/01/20 15:07:18;;;;;;;3.15;1.53;;;;;;;19.78;44.23;101466.91;;;;-59
2022/01/20 15:10:18;;;;;;;1.83;1.33;;;;;;;19.80;44.11;101457.03;;;;-53
2022/01/20 15:13:18;;;;;;;1.71;1.30;;;;;;;19.79;44.17;101451.39;;;;-50
2022/01/20 15:16:18;;;;;;;1.95;1.41;;;;;;;19.83;44.16;101450.25;;;;-52
2022/01/20 15:19:18;;;;;;;2.91;1.47;;;;;;;19.85;44.08;101450.63;;;;-48
2022/01/20 15:22:18;;;;;;;2.94;1.33;;;;;;;19.85;44.09;101459.00;;;;-51
2022/01/20 15:25:18;;;;;;;2.83;1.34;;;;;;;19.83;44.24;101461.80;;;;-56
2022/01/20 15:28:18;;;;;;;2.16;1.42;;;;;;;19.83;44.19;101471.08;;;;-48
2022/01/20 15:31:20;;;;;;;1.74;1.38;;;;;;;19.83;44.23;101468.72;;;;-54
2022/01/20 15:34:18;;;;;;;2.61;1.46;;;;;;;19.83;44.13;101472.70;;;;-54
2022/01/20 15:37:18;;;;;;;1.67;1.24;;;;;;;19.83;44.27;101479.86;;;;-55
2022/01/20 15:40:20;;;;;;;1.42;1.22;;;;;;;19.84;44.11;101478.48;;;;-52
2022/01/20 15:43:18;;;;;;;1.27;1.17;;;;;;;19.83;44.24;101475.63;;;;-52
2022/01/20 15:46:18;;;;;;;1.93;1.30;;;;;;;19.84;44.22;101475.88;;;;-52
2022/01/20 15:49:18;;;;;;;1.77;1.51;;;;;;;19.84;44.21;101486.89;;;;-51
2022/01/20 15:52:18;;;;;;;1.61;1.33;;;;;;;19.84;44.17;101491.01;;;;-52
2022/01/20 15:55:18;;;;;;;2.62;1.37;;;;;;;19.85;44.18;101491.21;;;;-48
2022/01/20 15:58:18;;;;;;;1.33;1.21;;;;;;;19.86;44.17;101493.77;;;;-51
2022/01/20 16:01:18;;;;;;;1.39;1.20;;;;;;;19.86;44.17;101489.05;;;;-51
2022/01/20 16:04:18;;;;;;;2.09;1.35;;;;;;;19.86;44.22;101483.03;;;;-52
2022/01/20 16:07:18;;;;;;;1.65;1.31;;;;;;;19.86;44.21;101487.59;;;;-51
2022/01/20 16:10:18;;;;;;;1.80;1.29;;;;;;;19.87;44.25;101499.62;;;;-51
2022/01/20 16:13:19;;;;;;;1.76;1.36;;;;;;;19.88;44.18;101503.90;;;;-52
2022/01/20 16:16:18;;;;;;;1.67;1.44;;;;;;;19.88;44.18;101503.90;;;;-48
2022/01/20 16:19:18;;;;;;;1.43;1.22;;;;;;;19.93;44.04;101514.66;;;;-51
2022/01/20 16:22:18;;;;;;;2.79;1.40;;;;;;;20.01;44.48;101516.13;;;;-50
2022/01/20 16:25:18;;;;;;;3.06;1.25;;;;;;;19.99;44.06;101515.59;;;;-50
2022/01/20 16:28:18;;;;;;;2.04;1.35;;;;;;;19.98;44.02;101514.17;;;;-50
2022/01/20 16:31:18;;;;;;;2.55;1.25;;;;;;;19.97;44.06;101519.86;;;;-50
2022/01/20 16:34:18;;;;;;;3.78;1.20;;;;;;;19.98;44.10;101529.72;;;;-50
2022/01/20 16:37:18;;;;;;;2.21;1.39;;;;;;;20.00;43.73;101534.56;;;;-50
2022/01/20 16:40:19;;;;;;;2.67;1.33;;;;;;;20.01;43.91;101539.08;;;;-52
2022/01/20 16:43:18;;;;;;;3.01;1.69;;;;;;;20.03;44.01;101542.30;;;;-51
2022/01/20 16:46:18;;;;;;;2.80;1.58;;;;;;;20.07;44.13;101553.13;;;;-56
2022/01/20 16:49:18;;;;;;;2.69;1.59;;;;;;;20.09;44.11;101559.68;;;;-54
2022/01/20 16:52:18;;;;;;;5.04;1.57;;;;;;;20.14;44.02;101559.77;;;;-51
2022/01/20 16:55:18;;;;;;;3.11;2.05;;;;;;;20.13;43.90;101568.63;;;;-51
2022/01/20 16:58:18;;;;;;;2.28;1.41;;;;;;;20.13;43.90;101577.47;;;;-52
2022/01/20 17:01:18;;;;;;;3.39;1.74;;;;;;;20.13;43.95;101575.59;;;;-55
2022/01/20 17:04:18;;;;;;;2.19;1.50;;;;;;;20.12;43.91;101593.91;;;;-57
2022/01/20 17:07:19;;;;;;;1.96;1.49;;;;;;;20.11;43.86;101602.00;;;;-51
2022/01/20 17:10:18;;;;;;;2.11;1.40;;;;;;;20.09;43.94;101595.56;;;;-51
2022/01/20 17:13:18;;;;;;;2.03;1.59;;;;;;;20.09;43.87;101586.37;;;;-55
2022/01/20 17:16:18;;;;;;;2.12;1.47;;;;;;;20.07;43.95;101578.52;;;;-58
2022/01/20 17:19:18;;;;;;;1.49;1.39;;;;;;;20.07;43.96;101590.64;;;;-56
2022/01/20 17:22:18;;;;;;;1.90;1.51;;;;;;;20.07;43.98;101597.47;;;;-56
2022/01/20 17:25:18;;;;;;;1.50;1.40;;;;;;;20.05;43.92;101592.14;;;;-56
2022/01/20 17:28:18;;;;;;;1.98;1.45;;;;;;;20.05;43.97;101589.86;;;;-54
2022/01/20 17:31:18;;;;;;;2.48;1.31;;;;;;;20.05;43.94;101594.33;;;;-53
2022/01/20 17:34:18;;;;;;;1.50;1.35;;;;;;;20.05;43.86;101592.46;;;;-54
2022/01/20 17:37:18;;;;;;;1.88;1.29;;;;;;;20.04;43.98;101603.09;;;;-54
2022/01/20 17:40:18;;;;;;;1.49;1.20;;;;;;;20.05;43.85;101608.00;;;;-52
2022/01/20 17:43:18;;;;;;;1.48;1.36;;;;;;;20.03;44.04;101613.90;;;;-51
2022/01/20 17:46:18;;;;;;;1.57;1.30;;;;;;;20.03;43.84;101621.63;;;;-52
2022/01/20 17:49:18;;;;;;;1.56;1.31;;;;;;;20.03;43.75;101627.33;;;;-54
2022/01/20 17:52:18;;;;;;;1.99;1.35;;;;;;;20.03;43.90;101632.70;;;;-54
2022/01/20 17:55:18;;;;;;;1.70;1.41;;;;;;;20.04;43.80;101643.13;;;;-54
2022/01/20 17:58:18;;;;;;;1.57;1.35;;;;;;;20.03;43.98;101640.67;;;;-54
2022/01/20 18:01:18;;;;;;;1.89;1.41;;;;;;;20.04;43.80;101633.20;;;;-54
2022/01/20 18:04:19;;;;;;;1.53;1.32;;;;;;;20.03;43.94;101624.48;;;;-54
2022/01/20 18:07:18;;;;;;;1.28;1.17;;;;;;;20.03;43.94;101619.77;;;;-56
2022/01/20 18:10:18;;;;;;;1.56;1.31;;;;;;;20.04;43.87;101625.54;;;;-56